sensor_id;sensor_type;location;lat;lon;timestamp;P1;durP1;ratioP1;P2;durP2;ratioP2
11767;SDS011;5941;57.652;12.514;2023-04-01T00:02:10;1.30;;;1.20;;
11767;SDS011;5941;57.652;12.514;2023-04-01T00:04:36;1.40;;;1.20;;
11767;SDS011;5941;57.652;12.514;2023-04-01T00:07:02;1.67;;;1.53;;
11767;SDS011;5941;57.652;12.514;2023-04-01T00:09:28;1.43;;;1.20;;
11767;SDS011;5941;57.652;12.514;2023-04-01T00:11:55;2.13;;;1.30;;
11767;SDS011;5941;57.652;12.514;2023-04-01T00:14:21;1.77;;;1.23;;
11767;SDS011;5941;57.652;12.514;2023-04-01T00:16:46;1.47;;;1.30;;
11767;SDS011;5941;57.652;12.514;2023-04-01T00:19:12;1.30;;;1.20;;
11767;SDS011;5941;57.652;12.514;2023-04-01T00:21:40;1.40;;;1.30;;
11767;SDS011;5941;57.652;12.514;2023-04-01T00:24:06;1.00;;;1.00;;
11767;SDS011;5941;57.652;12.514;2023-04-01T00:26:32;1.30;;;1.20;;
11767;SDS011;5941;57.652;12.514;2023-04-01T00:28:58;2.43;;;1.40;;
11767;SDS011;5941;57.652;12.514;2023-04-01T00:31:25;1.20;;;1.10;;
11767;SDS011;5941;57.652;12.514;2023-04-01T00:33:51;1.80;;;1.30;;
11767;SDS011;5941;57.652;12.514;2023-04-01T00:36:18;1.53;;;1.30;;
11767;SDS011;5941;57.652;12.514;2023-04-01T00:38:45;1.20;;;1.10;;
11767;SDS011;5941;57.652;12.514;2023-04-01T00:41:12;1.40;;;1.30;;
11767;SDS011;5941;57.652;12.514;2023-04-01T00:43:40;1.87;;;1.07;;
11767;SDS011;5941;57.652;12.514;2023-04-01T00:46:06;2.03;;;1.13;;
11767;SDS011;5941;57.652;12.514;2023-04-01T00:48:39;1.20;;;1.10;;
11767;SDS011;5941;57.652;12.514;2023-04-01T00:51:24;2.77;;;1.20;;
11767;SDS011;5941;57.652;12.514;2023-04-01T00:53:52;3.03;;;1.47;;
11767;SDS011;5941;57.652;12.514;2023-04-01T00:56:19;1.30;;;1.20;;
11767;SDS011;5941;57.652;12.514;2023-04-01T00:58:51;1.70;;;1.30;;
11767;SDS011;5941;57.652;12.514;2023-04-01T01:01:18;1.13;;;1.03;;
11767;SDS011;5941;57.652;12.514;2023-04-01T01:03:45;1.13;;;1.03;;
11767;SDS011;5941;57.652;12.514;2023-04-01T01:06:15;1.70;;;1.10;;
11767;SDS011;5941;57.652;12.514;2023-04-01T01:09:02;1.20;;;1.10;;
11767;SDS011;5941;57.652;12.514;2023-04-01T01:11:42;1.17;;;1.07;;
11767;SDS011;5941;57.652;12.514;2023-04-01T01:16:58;1.27;;;1.17;;
11767;SDS011;5941;57.652;12.514;2023-04-01T01:19:45;2.13;;;1.13;;
11767;SDS011;5941;57.652;12.514;2023-04-01T01:22:20;1.30;;;1.20;;
11767;SDS011;5941;57.652;12.514;2023-04-01T01:27:18;2.10;;;1.07;;
11767;SDS011;5941;57.652;12.514;2023-04-01T01:30:07;1.80;;;1.13;;
11767;SDS011;5941;57.652;12.514;2023-04-01T01:37:38;1.53;;;1.10;;
11767;SDS011;5941;57.652;12.514;2023-04-01T01:40:06;1.17;;;1.07;;
11767;SDS011;5941;57.652;12.514;2023-04-01T01:42:33;1.63;;;1.20;;
11767;SDS011;5941;57.652;12.514;2023-04-01T01:45:00;1.10;;;1.10;;
11767;SDS011;5941;57.652;12.514;2023-04-01T01:47:27;1.10;;;1.10;;
11767;SDS011;5941;57.652;12.514;2023-04-01T01:49:54;1.10;;;1.00;;
11767;SDS011;5941;57.652;12.514;2023-04-01T01:52:23;1.30;;;1.20;;
11767;SDS011;5941;57.652;12.514;2023-04-01T01:54:49;4.33;;;1.43;;
11767;SDS011;5941;57.652;12.514;2023-04-01T01:57:16;2.00;;;1.10;;
11767;SDS011;5941;57.652;12.514;2023-04-01T01:59:43;1.27;;;1.17;;
11767;SDS011;5941;57.652;12.514;2023-04-01T02:02:11;1.30;;;1.20;;
11767;SDS011;5941;57.652;12.514;2023-04-01T02:04:39;2.67;;;1.10;;
11767;SDS011;5941;57.652;12.514;2023-04-01T02:07:07;0.90;;;0.90;;
11767;SDS011;5941;57.652;12.514;2023-04-01T02:09:36;1.23;;;1.03;;
11767;SDS011;5941;57.652;12.514;2023-04-01T02:12:12;1.00;;;1.00;;
11767;SDS011;5941;57.652;12.514;2023-04-01T02:14:48;3.50;;;1.27;;
11767;SDS011;5941;57.652;12.514;2023-04-01T02:17:17;2.93;;;1.20;;
11767;SDS011;5941;57.652;12.514;2023-04-01T02:19:50;2.03;;;1.00;;
11767;SDS011;5941;57.652;12.514;2023-04-01T02:22:19;1.23;;;1.03;;
11767;SDS011;5941;57.652;12.514;2023-04-01T02:24:46;2.23;;;1.50;;
11767;SDS011;5941;57.652;12.514;2023-04-01T02:27:12;1.53;;;1.00;;
11767;SDS011;5941;57.652;12.514;2023-04-01T02:29:38;1.67;;;0.97;;
11767;SDS011;5941;57.652;12.514;2023-04-01T02:32:04;1.10;;;1.00;;
11767;SDS011;5941;57.652;12.514;2023-04-01T02:34:31;1.57;;;0.90;;
11767;SDS011;5941;57.652;12.514;2023-04-01T02:36:58;1.30;;;0.97;;
11767;SDS011;5941;57.652;12.514;2023-04-01T02:39:24;1.60;;;1.00;;
11767;SDS011;5941;57.652;12.514;2023-04-01T02:41:51;1.60;;;0.97;;
11767;SDS011;5941;57.652;12.514;2023-04-01T02:44:17;0.90;;;0.90;;
11767;SDS011;5941;57.652;12.514;2023-04-01T02:46:43;2.07;;;1.30;;
11767;SDS011;5941;57.652;12.514;2023-04-01T02:49:10;0.80;;;0.80;;
11767;SDS011;5941;57.652;12.514;2023-04-01T02:51:36;1.20;;;1.10;;
11767;SDS011;5941;57.652;12.514;2023-04-01T02:54:02;1.23;;;1.03;;
11767;SDS011;5941;57.652;12.514;2023-04-01T02:56:28;1.20;;;1.00;;
11767;SDS011;5941;57.652;12.514;2023-04-01T02:58:55;1.40;;;1.23;;
11767;SDS011;5941;57.652;12.514;2023-04-01T03:01:21;1.43;;;1.07;;
11767;SDS011;5941;57.652;12.514;2023-04-01T03:03:47;1.10;;;0.97;;
11767;SDS011;5941;57.652;12.514;2023-04-01T03:06:14;1.53;;;1.07;;
11767;SDS011;5941;57.652;12.514;2023-04-01T03:08:40;1.23;;;1.10;;
11767;SDS011;5941;57.652;12.514;2023-04-01T03:11:06;1.00;;;0.90;;
11767;SDS011;5941;57.652;12.514;2023-04-01T03:13:32;1.23;;;1.10;;
11767;SDS011;5941;57.652;12.514;2023-04-01T03:15:58;2.13;;;1.10;;
11767;SDS011;5941;57.652;12.514;2023-04-01T03:18:24;1.20;;;1.07;;
11767;SDS011;5941;57.652;12.514;2023-04-01T03:20:50;1.17;;;1.07;;
11767;SDS011;5941;57.652;12.514;2023-04-01T03:23:16;1.10;;;1.00;;
11767;SDS011;5941;57.652;12.514;2023-04-01T03:25:44;3.00;;;0.90;;
11767;SDS011;5941;57.652;12.514;2023-04-01T03:28:10;1.37;;;1.03;;
11767;SDS011;5941;57.652;12.514;2023-04-01T03:30:37;1.90;;;0.93;;
11767;SDS011;5941;57.652;12.514;2023-04-01T03:33:03;1.03;;;0.93;;
11767;SDS011;5941;57.652;12.514;2023-04-01T03:35:29;1.80;;;1.00;;
11767;SDS011;5941;57.652;12.514;2023-04-01T03:37:55;1.00;;;0.90;;
11767;SDS011;5941;57.652;12.514;2023-04-01T03:40:21;1.03;;;0.90;;
11767;SDS011;5941;57.652;12.514;2023-04-01T03:42:47;1.23;;;1.10;;
11767;SDS011;5941;57.652;12.514;2023-04-01T03:45:14;1.27;;;0.90;;
11767;SDS011;5941;57.652;12.514;2023-04-01T03:47:40;2.67;;;1.07;;
11767;SDS011;5941;57.652;12.514;2023-04-01T03:50:06;1.90;;;1.00;;
11767;SDS011;5941;57.652;12.514;2023-04-01T03:52:33;0.90;;;0.83;;
11767;SDS011;5941;57.652;12.514;2023-04-01T03:55:00;1.20;;;1.00;;
11767;SDS011;5941;57.652;12.514;2023-04-01T03:57:26;1.00;;;1.00;;
11767;SDS011;5941;57.652;12.514;2023-04-01T03:59:52;0.87;;;0.87;;
11767;SDS011;5941;57.652;12.514;2023-04-01T04:02:18;0.97;;;0.97;;
11767;SDS011;5941;57.652;12.514;2023-04-01T04:04:44;1.33;;;1.07;;
11767;SDS011;5941;57.652;12.514;2023-04-01T04:07:12;0.90;;;0.90;;
11767;SDS011;5941;57.652;12.514;2023-04-01T04:09:38;1.20;;;0.87;;
11767;SDS011;5941;57.652;12.514;2023-04-01T04:12:04;0.87;;;0.87;;
11767;SDS011;5941;57.652;12.514;2023-04-01T04:14:31;0.93;;;0.83;;
11767;SDS011;5941;57.652;12.514;2023-04-01T04:16:57;1.13;;;0.90;;
11767;SDS011;5941;57.652;12.514;2023-04-01T04:19:23;1.43;;;0.90;;
11767;SDS011;5941;57.652;12.514;2023-04-01T04:21:49;1.07;;;0.93;;
11767;SDS011;5941;57.652;12.514;2023-04-01T04:24:15;1.43;;;1.20;;
11767;SDS011;5941;57.652;12.514;2023-04-01T04:26:41;1.10;;;1.00;;
11767;SDS011;5941;57.652;12.514;2023-04-01T04:29:07;3.00;;;0.83;;
11767;SDS011;5941;57.652;12.514;2023-04-01T04:31:33;0.93;;;0.90;;
11767;SDS011;5941;57.652;12.514;2023-04-01T04:34:00;1.53;;;0.80;;
11767;SDS011;5941;57.652;12.514;2023-04-01T04:36:26;1.20;;;0.90;;
11767;SDS011;5941;57.652;12.514;2023-04-01T04:38:52;1.90;;;0.80;;
11767;SDS011;5941;57.652;12.514;2023-04-01T04:41:18;1.00;;;0.83;;
11767;SDS011;5941;57.652;12.514;2023-04-01T04:43:54;1.07;;;1.00;;
11767;SDS011;5941;57.652;12.514;2023-04-01T04:46:20;0.80;;;0.80;;
11767;SDS011;5941;57.652;12.514;2023-04-01T04:48:46;2.17;;;0.93;;
11767;SDS011;5941;57.652;12.514;2023-04-01T04:51:13;1.37;;;0.90;;
11767;SDS011;5941;57.652;12.514;2023-04-01T04:53:40;1.10;;;0.80;;
11767;SDS011;5941;57.652;12.514;2023-04-01T04:56:06;0.80;;;0.80;;
11767;SDS011;5941;57.652;12.514;2023-04-01T04:58:32;1.10;;;0.80;;
11767;SDS011;5941;57.652;12.514;2023-04-01T05:00:58;0.93;;;0.83;;
11767;SDS011;5941;57.652;12.514;2023-04-01T05:03:24;0.80;;;0.63;;
11767;SDS011;5941;57.652;12.514;2023-04-01T05:05:51;1.03;;;0.80;;
11767;SDS011;5941;57.652;12.514;2023-04-01T05:08:17;3.57;;;1.10;;
11767;SDS011;5941;57.652;12.514;2023-04-01T05:10:43;1.00;;;0.90;;
11767;SDS011;5941;57.652;12.514;2023-04-01T05:13:10;0.90;;;0.90;;
11767;SDS011;5941;57.652;12.514;2023-04-01T05:15:36;1.07;;;0.97;;
11767;SDS011;5941;57.652;12.514;2023-04-01T05:18:02;0.97;;;0.90;;
11767;SDS011;5941;57.652;12.514;2023-04-01T05:20:28;0.80;;;0.67;;
11767;SDS011;5941;57.652;12.514;2023-04-01T05:22:55;1.20;;;1.10;;
11767;SDS011;5941;57.652;12.514;2023-04-01T05:25:21;2.73;;;0.97;;
11767;SDS011;5941;57.652;12.514;2023-04-01T05:27:47;1.27;;;1.03;;
11767;SDS011;5941;57.652;12.514;2023-04-01T05:30:13;1.10;;;1.00;;
11767;SDS011;5941;57.652;12.514;2023-04-01T05:32:39;0.80;;;0.80;;
11767;SDS011;5941;57.652;12.514;2023-04-01T05:35:06;1.67;;;0.80;;
11767;SDS011;5941;57.652;12.514;2023-04-01T05:37:35;0.70;;;0.70;;
11767;SDS011;5941;57.652;12.514;2023-04-01T05:40:02;1.43;;;1.00;;
11767;SDS011;5941;57.652;12.514;2023-04-01T05:42:28;1.87;;;1.00;;
11767;SDS011;5941;57.652;12.514;2023-04-01T05:44:54;0.93;;;0.80;;
11767;SDS011;5941;57.652;12.514;2023-04-01T05:47:20;0.77;;;0.77;;
11767;SDS011;5941;57.652;12.514;2023-04-01T05:49:46;0.80;;;0.80;;
11767;SDS011;5941;57.652;12.514;2023-04-01T05:52:12;1.07;;;0.90;;
11767;SDS011;5941;57.652;12.514;2023-04-01T05:54:38;0.93;;;0.90;;
11767;SDS011;5941;57.652;12.514;2023-04-01T05:57:04;1.43;;;0.70;;
11767;SDS011;5941;57.652;12.514;2023-04-01T05:59:30;2.13;;;0.90;;
11767;SDS011;5941;57.652;12.514;2023-04-01T06:01:56;0.80;;;0.80;;
11767;SDS011;5941;57.652;12.514;2023-04-01T06:04:23;0.87;;;0.80;;
11767;SDS011;5941;57.652;12.514;2023-04-01T06:06:50;0.70;;;0.70;;
11767;SDS011;5941;57.652;12.514;2023-04-01T06:09:23;0.77;;;0.77;;
11767;SDS011;5941;57.652;12.514;2023-04-01T06:11:56;0.80;;;0.70;;
11767;SDS011;5941;57.652;12.514;2023-04-01T06:14:32;1.10;;;0.90;;
11767;SDS011;5941;57.652;12.514;2023-04-01T06:17:05;2.43;;;0.70;;
11767;SDS011;5941;57.652;12.514;2023-04-01T06:24:30;0.90;;;0.90;;
11767;SDS011;5941;57.652;12.514;2023-04-01T06:29:52;2.53;;;0.93;;
11767;SDS011;5941;57.652;12.514;2023-04-01T06:40:22;1.07;;;0.97;;
11767;SDS011;5941;57.652;12.514;2023-04-01T06:48:14;0.60;;;0.60;;
11767;SDS011;5941;57.652;12.514;2023-04-01T06:50:46;0.60;;;0.60;;
11767;SDS011;5941;57.652;12.514;2023-04-01T06:53:19;0.70;;;0.70;;
11767;SDS011;5941;57.652;12.514;2023-04-01T06:55:47;0.70;;;0.67;;
11767;SDS011;5941;57.652;12.514;2023-04-01T06:58:26;1.67;;;0.80;;
11767;SDS011;5941;57.652;12.514;2023-04-01T07:00:53;2.40;;;0.70;;
11767;SDS011;5941;57.652;12.514;2023-04-01T07:06:24;0.60;;;0.60;;
11767;SDS011;5941;57.652;12.514;2023-04-01T07:08:52;0.70;;;0.70;;
11767;SDS011;5941;57.652;12.514;2023-04-01T07:11:24;0.40;;;0.40;;
11767;SDS011;5941;57.652;12.514;2023-04-01T07:13:55;1.10;;;0.70;;
11767;SDS011;5941;57.652;12.514;2023-04-01T07:16:39;2.67;;;0.70;;
11767;SDS011;5941;57.652;12.514;2023-04-01T07:19:11;0.73;;;0.73;;
11767;SDS011;5941;57.652;12.514;2023-04-01T07:21:45;2.30;;;0.80;;
11767;SDS011;5941;57.652;12.514;2023-04-01T07:24:17;0.60;;;0.60;;
11767;SDS011;5941;57.652;12.514;2023-04-01T07:26:46;0.70;;;0.70;;
11767;SDS011;5941;57.652;12.514;2023-04-01T07:29:13;1.33;;;0.60;;
11767;SDS011;5941;57.652;12.514;2023-04-01T07:32:28;1.27;;;0.80;;
11767;SDS011;5941;57.652;12.514;2023-04-01T07:34:27;1.80;;;0.80;;
11767;SDS011;5941;57.652;12.514;2023-04-01T07:41:59;2.00;;;0.70;;
11767;SDS011;5941;57.652;12.514;2023-04-01T07:47:15;1.57;;;0.43;;
11767;SDS011;5941;57.652;12.514;2023-04-01T07:50:09;1.03;;;0.67;;
11767;SDS011;5941;57.652;12.514;2023-04-01T07:52:44;0.73;;;0.60;;
11767;SDS011;5941;57.652;12.514;2023-04-01T07:55:27;1.47;;;0.50;;
11767;SDS011;5941;57.652;12.514;2023-04-01T08:00:27;1.13;;;0.80;;
11767;SDS011;5941;57.652;12.514;2023-04-01T08:03:05;3.00;;;0.70;;
11767;SDS011;5941;57.652;12.514;2023-04-01T08:10:40;1.23;;;0.60;;
11767;SDS011;5941;57.652;12.514;2023-04-01T08:13:31;1.17;;;0.60;;
11767;SDS011;5941;57.652;12.514;2023-04-01T08:16:06;0.83;;;0.57;;
11767;SDS011;5941;57.652;12.514;2023-04-01T08:21:07;1.40;;;0.63;;
11767;SDS011;5941;57.652;12.514;2023-04-01T08:23:37;0.57;;;0.53;;
11767;SDS011;5941;57.652;12.514;2023-04-01T08:26:05;1.13;;;0.50;;
11767;SDS011;5941;57.652;12.514;2023-04-01T08:28:34;2.10;;;0.63;;
11767;SDS011;5941;57.652;12.514;2023-04-01T08:31:13;1.37;;;0.60;;
11767;SDS011;5941;57.652;12.514;2023-04-01T08:33:41;0.90;;;0.50;;
11767;SDS011;5941;57.652;12.514;2023-04-01T08:36:20;1.00;;;0.40;;
11767;SDS011;5941;57.652;12.514;2023-04-01T08:38:52;2.20;;;0.50;;
11767;SDS011;5941;57.652;12.514;2023-04-01T08:44:11;1.30;;;0.70;;
11767;SDS011;5941;57.652;12.514;2023-04-01T09:13:36;1.87;;;0.70;;
11767;SDS011;5941;57.652;12.514;2023-04-01T09:18:39;0.97;;;0.53;;
11767;SDS011;5941;57.652;12.514;2023-04-01T09:32:01;1.60;;;0.50;;
11767;SDS011;5941;57.652;12.514;2023-04-01T09:39:36;0.30;;;0.30;;
11767;SDS011;5941;57.652;12.514;2023-04-01T09:42:07;0.33;;;0.33;;
11767;SDS011;5941;57.652;12.514;2023-04-01T09:44:34;0.50;;;0.30;;
11767;SDS011;5941;57.652;12.514;2023-04-01T09:52:02;0.43;;;0.40;;
11767;SDS011;5941;57.652;12.514;2023-04-01T09:54:51;0.40;;;0.40;;
11767;SDS011;5941;57.652;12.514;2023-04-01T09:57:41;0.67;;;0.40;;
11767;SDS011;5941;57.652;12.514;2023-04-01T10:13:51;0.43;;;0.43;;
11767;SDS011;5941;57.652;12.514;2023-04-01T10:16:02;0.30;;;0.30;;
11767;SDS011;5941;57.652;12.514;2023-04-01T10:28:56;0.30;;;0.30;;
11767;SDS011;5941;57.652;12.514;2023-04-01T10:47:30;0.47;;;0.40;;
11767;SDS011;5941;57.652;12.514;2023-04-01T10:53:10;0.70;;;0.30;;
11767;SDS011;5941;57.652;12.514;2023-04-01T11:19:07;0.60;;;0.40;;
11767;SDS011;5941;57.652;12.514;2023-04-01T11:21:44;0.60;;;0.37;;
11767;SDS011;5941;57.652;12.514;2023-04-01T11:26:55;0.60;;;0.50;;
11767;SDS011;5941;57.652;12.514;2023-04-01T11:32:19;1.47;;;0.40;;
11767;SDS011;5941;57.652;12.514;2023-04-01T11:35:12;1.10;;;0.60;;
11767;SDS011;5941;57.652;12.514;2023-04-01T11:37:37;0.57;;;0.50;;
11767;SDS011;5941;57.652;12.514;2023-04-01T11:40:08;0.60;;;0.60;;
11767;SDS011;5941;57.652;12.514;2023-04-01T11:42:41;0.90;;;0.50;;
11767;SDS011;5941;57.652;12.514;2023-04-01T11:53:23;0.37;;;0.37;;
11767;SDS011;5941;57.652;12.514;2023-04-01T11:56:02;0.50;;;0.50;;
11767;SDS011;5941;57.652;12.514;2023-04-01T12:01:19;0.63;;;0.50;;
11767;SDS011;5941;57.652;12.514;2023-04-01T12:14:30;0.77;;;0.40;;
11767;SDS011;5941;57.652;12.514;2023-04-01T12:19:26;0.53;;;0.53;;
11767;SDS011;5941;57.652;12.514;2023-04-01T12:24:45;0.60;;;0.60;;
11767;SDS011;5941;57.652;12.514;2023-04-01T12:32:45;0.60;;;0.50;;
11767;SDS011;5941;57.652;12.514;2023-04-01T12:35:14;0.83;;;0.43;;
11767;SDS011;5941;57.652;12.514;2023-04-01T12:55:35;0.80;;;0.63;;
11767;SDS011;5941;57.652;12.514;2023-04-01T13:09:00;0.60;;;0.40;;
11767;SDS011;5941;57.652;12.514;2023-04-01T13:16:43;0.83;;;0.60;;
11767;SDS011;5941;57.652;12.514;2023-04-01T13:21:43;0.80;;;0.60;;
11767;SDS011;5941;57.652;12.514;2023-04-01T13:26:59;1.20;;;0.50;;
11767;SDS011;5941;57.652;12.514;2023-04-01T13:29:30;1.03;;;0.60;;
11767;SDS011;5941;57.652;12.514;2023-04-01T13:44:36;0.87;;;0.57;;
11767;SDS011;5941;57.652;12.514;2023-04-01T13:49:57;0.57;;;0.50;;
11767;SDS011;5941;57.652;12.514;2023-04-01T14:00:19;2.77;;;0.50;;
11767;SDS011;5941;57.652;12.514;2023-04-01T14:14:15;0.90;;;0.60;;
11767;SDS011;5941;57.652;12.514;2023-04-01T14:24:22;0.50;;;0.40;;
11767;SDS011;5941;57.652;12.514;2023-04-01T14:40:21;0.50;;;0.50;;
11767;SDS011;5941;57.652;12.514;2023-04-01T14:50:30;1.07;;;0.47;;
11767;SDS011;5941;57.652;12.514;2023-04-01T14:53:13;1.60;;;0.67;;
11767;SDS011;5941;57.652;12.514;2023-04-01T14:55:47;1.07;;;0.50;;
11767;SDS011;5941;57.652;12.514;2023-04-01T14:58:15;0.80;;;0.70;;
11767;SDS011;5941;57.652;12.514;2023-04-01T15:00:47;2.00;;;0.60;;
11767;SDS011;5941;57.652;12.514;2023-04-01T15:03:19;1.83;;;0.60;;
11767;SDS011;5941;57.652;12.514;2023-04-01T15:05:52;0.53;;;0.53;;
11767;SDS011;5941;57.652;12.514;2023-04-01T15:13:38;0.47;;;0.47;;
11767;SDS011;5941;57.652;12.514;2023-04-01T15:16:12;0.33;;;0.33;;
11767;SDS011;5941;57.652;12.514;2023-04-01T15:27:08;0.40;;;0.40;;
11767;SDS011;5941;57.652;12.514;2023-04-01T15:29:40;0.60;;;0.50;;
11767;SDS011;5941;57.652;12.514;2023-04-01T15:34:57;0.33;;;0.33;;
11767;SDS011;5941;57.652;12.514;2023-04-01T15:37:39;0.60;;;0.53;;
11767;SDS011;5941;57.652;12.514;2023-04-01T15:45:12;0.43;;;0.43;;
11767;SDS011;5941;57.652;12.514;2023-04-01T15:47:42;0.77;;;0.50;;
11767;SDS011;5941;57.652;12.514;2023-04-01T15:55:38;1.40;;;0.60;;
11767;SDS011;5941;57.652;12.514;2023-04-01T15:58:18;0.50;;;0.50;;
11767;SDS011;5941;57.652;12.514;2023-04-01T16:03:55;1.03;;;0.87;;
11767;SDS011;5941;57.652;12.514;2023-04-01T16:14:22;0.50;;;0.50;;
11767;SDS011;5941;57.652;12.514;2023-04-01T16:19:28;0.83;;;0.70;;
11767;SDS011;5941;57.652;12.514;2023-04-01T16:22:00;1.10;;;0.70;;
11767;SDS011;5941;57.652;12.514;2023-04-01T16:27:13;0.90;;;0.73;;
11767;SDS011;5941;57.652;12.514;2023-04-01T16:37:37;2.70;;;2.20;;
11767;SDS011;5941;57.652;12.514;2023-04-01T16:42:49;1.87;;;1.30;;
11767;SDS011;5941;57.652;12.514;2023-04-01T16:45:19;2.00;;;0.70;;
11767;SDS011;5941;57.652;12.514;2023-04-01T16:47:48;1.17;;;0.63;;
11767;SDS011;5941;57.652;12.514;2023-04-01T16:50:21;1.00;;;0.70;;
11767;SDS011;5941;57.652;12.514;2023-04-01T16:55:21;0.50;;;0.50;;
11767;SDS011;5941;57.652;12.514;2023-04-01T16:57:52;0.50;;;0.43;;
11767;SDS011;5941;57.652;12.514;2023-04-01T17:05:18;0.73;;;0.60;;
11767;SDS011;5941;57.652;12.514;2023-04-01T17:07:48;0.67;;;0.63;;
11767;SDS011;5941;57.652;12.514;2023-04-01T17:10:18;0.87;;;0.53;;
11767;SDS011;5941;57.652;12.514;2023-04-01T17:12:53;1.30;;;0.97;;
11767;SDS011;5941;57.652;12.514;2023-04-01T17:18:09;0.57;;;0.50;;
11767;SDS011;5941;57.652;12.514;2023-04-01T17:23:23;0.47;;;0.47;;
11767;SDS011;5941;57.652;12.514;2023-04-01T17:38:49;1.10;;;0.70;;
11767;SDS011;5941;57.652;12.514;2023-04-01T17:57:09;1.77;;;0.50;;
11767;SDS011;5941;57.652;12.514;2023-04-01T17:59:44;0.83;;;0.77;;
11767;SDS011;5941;57.652;12.514;2023-04-01T18:02:21;0.80;;;0.70;;
11767;SDS011;5941;57.652;12.514;2023-04-01T18:07:48;2.20;;;0.70;;
11767;SDS011;5941;57.652;12.514;2023-04-01T18:10:28;2.40;;;0.80;;
11767;SDS011;5941;57.652;12.514;2023-04-01T18:13:04;0.60;;;0.60;;
11767;SDS011;5941;57.652;12.514;2023-04-01T18:18:09;1.27;;;0.80;;
11767;SDS011;5941;57.652;12.514;2023-04-01T18:20:39;1.23;;;1.00;;
11767;SDS011;5941;57.652;12.514;2023-04-01T18:23:12;1.73;;;0.80;;
11767;SDS011;5941;57.652;12.514;2023-04-01T18:25:44;1.93;;;0.70;;
11767;SDS011;5941;57.652;12.514;2023-04-01T18:36:08;2.63;;;0.80;;
11767;SDS011;5941;57.652;12.514;2023-04-01T18:38:39;0.60;;;0.60;;
11767;SDS011;5941;57.652;12.514;2023-04-01T18:41:12;1.57;;;1.00;;
11767;SDS011;5941;57.652;12.514;2023-04-01T18:46:30;1.03;;;0.87;;
11767;SDS011;5941;57.652;12.514;2023-04-01T18:53:57;0.80;;;0.80;;
11767;SDS011;5941;57.652;12.514;2023-04-01T18:56:45;2.30;;;0.87;;
11767;SDS011;5941;57.652;12.514;2023-04-01T18:59:12;1.80;;;0.70;;
11767;SDS011;5941;57.652;12.514;2023-04-01T19:02:02;0.60;;;0.60;;
11767;SDS011;5941;57.652;12.514;2023-04-01T19:07:27;1.77;;;0.93;;
11767;SDS011;5941;57.652;12.514;2023-04-01T19:10:00;3.13;;;0.70;;
11767;SDS011;5941;57.652;12.514;2023-04-01T19:12:44;0.90;;;0.70;;
11767;SDS011;5941;57.652;12.514;2023-04-01T19:20:34;0.87;;;0.80;;
11767;SDS011;5941;57.652;12.514;2023-04-01T19:23:17;1.87;;;0.90;;
11767;SDS011;5941;57.652;12.514;2023-04-01T19:30:54;4.90;;;1.10;;
11767;SDS011;5941;57.652;12.514;2023-04-01T19:36:22;1.17;;;1.07;;
11767;SDS011;5941;57.652;12.514;2023-04-01T19:41:19;2.47;;;1.00;;
11767;SDS011;5941;57.652;12.514;2023-04-01T19:46:36;0.83;;;0.83;;
11767;SDS011;5941;57.652;12.514;2023-04-01T19:54:19;2.67;;;1.10;;
11767;SDS011;5941;57.652;12.514;2023-04-01T19:56:51;2.27;;;0.90;;
11767;SDS011;5941;57.652;12.514;2023-04-01T20:02:26;1.67;;;0.87;;
11767;SDS011;5941;57.652;12.514;2023-04-01T20:04:55;1.30;;;1.10;;
11767;SDS011;5941;57.652;12.514;2023-04-01T20:07:23;1.30;;;1.20;;
11767;SDS011;5941;57.652;12.514;2023-04-01T20:10:04;2.70;;;1.30;;
11767;SDS011;5941;57.652;12.514;2023-04-01T20:12:35;1.63;;;1.20;;
11767;SDS011;5941;57.652;12.514;2023-04-01T20:15:20;1.27;;;1.10;;
11767;SDS011;5941;57.652;12.514;2023-04-01T20:17:46;1.23;;;1.13;;
11767;SDS011;5941;57.652;12.514;2023-04-01T20:20:17;2.27;;;1.10;;
11767;SDS011;5941;57.652;12.514;2023-04-01T20:30:37;1.57;;;1.10;;
11767;SDS011;5941;57.652;12.514;2023-04-01T20:40:58;1.60;;;1.23;;
11767;SDS011;5941;57.652;12.514;2023-04-01T20:43:30;2.43;;;1.50;;
11767;SDS011;5941;57.652;12.514;2023-04-01T20:51:31;1.70;;;1.60;;
11767;SDS011;5941;57.652;12.514;2023-04-01T20:54:17;2.03;;;1.30;;
11767;SDS011;5941;57.652;12.514;2023-04-01T20:56:56;1.60;;;1.47;;
11767;SDS011;5941;57.652;12.514;2023-04-01T21:02:02;2.30;;;1.70;;
11767;SDS011;5941;57.652;12.514;2023-04-01T21:04:37;2.40;;;1.50;;
11767;SDS011;5941;57.652;12.514;2023-04-01T21:09:49;1.70;;;1.60;;
11767;SDS011;5941;57.652;12.514;2023-04-01T21:15:10;3.80;;;1.37;;
11767;SDS011;5941;57.652;12.514;2023-04-01T21:23:03;1.53;;;1.23;;
11767;SDS011;5941;57.652;12.514;2023-04-01T21:33:28;1.87;;;1.53;;
11767;SDS011;5941;57.652;12.514;2023-04-01T21:36:03;3.13;;;1.30;;
11767;SDS011;5941;57.652;12.514;2023-04-01T21:44:02;2.03;;;1.80;;
11767;SDS011;5941;57.652;12.514;2023-04-01T21:52:01;2.03;;;1.70;;
11767;SDS011;5941;57.652;12.514;2023-04-01T21:54:43;2.57;;;1.50;;
11767;SDS011;5941;57.652;12.514;2023-04-01T21:57:20;2.23;;;1.53;;
11767;SDS011;5941;57.652;12.514;2023-04-01T22:05:22;2.00;;;1.70;;
11767;SDS011;5941;57.652;12.514;2023-04-01T22:10:26;1.53;;;1.40;;
11767;SDS011;5941;57.652;12.514;2023-04-01T22:13:04;3.63;;;1.67;;
11767;SDS011;5941;57.652;12.514;2023-04-01T22:16:08;4.27;;;1.80;;
11767;SDS011;5941;57.652;12.514;2023-04-01T22:21:07;3.00;;;1.37;;
11767;SDS011;5941;57.652;12.514;2023-04-01T22:29:12;2.30;;;1.53;;
11767;SDS011;5941;57.652;12.514;2023-04-01T22:31:52;2.53;;;1.60;;
11767;SDS011;5941;57.652;12.514;2023-04-01T22:37:10;1.93;;;1.30;;
11767;SDS011;5941;57.652;12.514;2023-04-01T22:39:55;1.67;;;1.40;;
11767;SDS011;5941;57.652;12.514;2023-04-01T22:42:30;2.40;;;1.50;;
11767;SDS011;5941;57.652;12.514;2023-04-01T22:50:23;1.97;;;1.50;;
11767;SDS011;5941;57.652;12.514;2023-04-01T22:55:41;2.40;;;1.70;;
11767;SDS011;5941;57.652;12.514;2023-04-01T22:58:14;1.70;;;1.40;;
11767;SDS011;5941;57.652;12.514;2023-04-01T23:00:42;1.80;;;1.47;;
11767;SDS011;5941;57.652;12.514;2023-04-01T23:05:36;1.70;;;1.50;;
11767;SDS011;5941;57.652;12.514;2023-04-01T23:10:51;2.60;;;1.70;;
11767;SDS011;5941;57.652;12.514;2023-04-01T23:13:20;2.97;;;1.73;;
11767;SDS011;5941;57.652;12.514;2023-04-01T23:15:47;2.43;;;1.57;;
11767;SDS011;5941;57.652;12.514;2023-04-01T23:23:26;1.30;;;1.00;;
11767;SDS011;5941;57.652;12.514;2023-04-01T23:30:49;2.97;;;1.30;;
11767;SDS011;5941;57.652;12.514;2023-04-01T23:35:48;1.90;;;1.20;;
11767;SDS011;5941;57.652;12.514;2023-04-01T23:38:15;1.27;;;1.17;;
11767;SDS011;5941;57.652;12.514;2023-04-01T23:40:41;1.63;;;1.37;;
11767;SDS011;5941;57.652;12.514;2023-04-01T23:43:14;1.30;;;1.07;;
11767;SDS011;5941;57.652;12.514;2023-04-01T23:45:43;1.63;;;1.30;;
11767;SDS011;5941;57.652;12.514;2023-04-01T23:48:11;1.40;;;1.30;;
11767;SDS011;5941;57.652;12.514;2023-04-01T23:50:38;2.53;;;1.60;;
11767;SDS011;5941;57.652;12.514;2023-04-01T23:53:15;2.27;;;1.43;;
11767;SDS011;5941;57.652;12.514;2023-04-01T23:55:42;3.57;;;1.60;;
